Time;durP1;ratioP1;P1;durP2;ratioP2;P2;SDS_P1;SDS_P2;PMS_P1;PMS_P2;Temp;Humidity;BMP_temperature;BMP_pressure;BME280_temperature;BME280_humidity;BME280_pressure;Samples;Min_cycle;Max_cycle;Signal;HPM_P1;HPM_P2
2023/10/20 00:01:03;;;;;;;3.57;3.37;;;16.20;68.40;;;;;;20740;6837;117642;-70
2023/10/20 00:03:30;;;;;;;3.70;3.50;;;16.20;68.40;;;;;;20509;6837;278593;-71
2023/10/20 00:05:56;;;;;;;3.87;3.60;;;16.30;67.90;;;;;;20528;6835;306793;-70
2023/10/20 00:08:21;;;;;;;4.18;3.15;;;16.60;66.70;;;;;;20744;6836;117373;-71
2023/10/20 00:10:46;;;;;;;3.83;3.20;;;16.60;66.70;;;;;;20747;6836;121920;-70
2023/10/20 00:13:12;;;;;;;3.60;3.25;;;16.40;67.30;;;;;;20751;6836;121248;-71
2023/10/20 00:15:38;;;;;;;3.28;2.97;;;16.00;69.00;;;;;;20734;6836;117726;-71
2023/10/20 00:18:04;;;;;;;5.00;3.27;;;16.00;69.00;;;;;;20751;6836;117189;-71
2023/10/20 00:20:30;;;;;;;3.77;3.43;;;15.90;69.70;;;;;;20533;6836;307638;-71
2023/10/20 00:22:55;;;;;;;3.60;3.30;;;16.00;69.10;;;;;;20533;6836;307234;-71
2023/10/20 00:25:21;;;;;;;3.55;3.35;;;16.40;68.10;;;;;;20533;6836;281803;-73
2023/10/20 00:27:46;;;;;;;3.07;2.87;;;16.60;67.00;;;;;;20563;6836;118191;-71
2023/10/20 00:30:12;;;;;;;3.10;2.80;;;16.60;67.10;;;;;;20738;6836;116987;-71
2023/10/20 00:32:41;;;;;;;3.80;3.30;;;16.40;67.90;;;;;;20528;6836;311461;-71
2023/10/20 00:35:10;;;;;;;3.13;2.93;;;16.50;67.20;;;;;;20738;6836;117587;-71
2023/10/20 00:37:35;;;;;;;3.23;3.03;;;16.40;67.30;;;;;;20721;6836;122891;-71
2023/10/20 00:40:07;;;;;;;6.30;3.28;;;16.30;67.60;;;;;;20530;6836;277924;-71
2023/10/20 00:42:31;;;;;;;3.37;3.13;;;16.30;67.60;;;;;;20526;6836;307299;-71
2023/10/20 00:44:56;;;;;;;3.60;3.30;;;16.60;67.20;;;;;;20541;6837;309056;-71
2023/10/20 00:47:21;;;;;;;3.47;3.17;;;16.80;65.70;;;;;;20524;6837;278013;-73
2023/10/20 00:49:47;;;;;;;3.07;2.87;;;17.00;65.20;;;;;;20755;6837;117284;-71
2023/10/20 00:52:13;;;;;;;3.28;3.08;;;16.60;66.40;;;;;;20745;6837;121042;-71
2023/10/20 00:54:40;;;;;;;2.80;2.60;;;16.60;66.40;;;;;;20736;6837;117141;-71
2023/10/20 00:57:04;;;;;;;3.10;2.97;;;16.30;67.50;;;;;;20526;6837;308071;-71
2023/10/20 00:59:30;;;;;;;3.42;2.70;;;16.40;67.50;;;;;;20718;6837;121428;-71
2023/10/20 01:01:56;;;;;;;3.03;2.83;;;16.30;67.60;;;;;;20528;6837;278247;-71
2023/10/20 01:04:21;;;;;;;2.80;2.60;;;16.40;67.10;;;;;;20740;6837;117187;-71
2023/10/20 01:06:49;;;;;;;2.90;2.67;;;16.40;67.50;;;;;;20741;6837;117154;-71
2023/10/20 01:09:12;;;;;;;3.20;3.00;;;16.20;67.90;;;;;;20521;6837;278284;-71
2023/10/20 01:11:38;;;;;;;3.47;3.28;;;16.30;67.60;;;;;;20472;6837;292498;-71
2023/10/20 01:14:04;;;;;;;3.50;3.20;;;16.70;65.90;;;;;;20524;6837;323295;-71
2023/10/20 01:16:31;;;;;;;3.30;3.10;;;16.90;65.70;;;;;;20529;6837;339954;-71
2023/10/20 01:18:56;;;;;;;2.80;2.60;;;16.90;65.30;;;;;;20738;6835;117466;-71
2023/10/20 01:21:22;;;;;;;3.10;2.87;;;16.40;66.60;;;;;;20713;6836;117601;-72
2023/10/20 01:23:48;;;;;;;2.70;2.50;;;16.40;66.60;;;;;;20733;6836;117335;-71
2023/10/20 01:26:14;;;;;;;2.90;2.70;;;15.90;68.90;;;;;;20723;6836;117831;-71
2023/10/20 01:28:40;;;;;;;3.65;3.45;;;15.90;68.90;;;;;;20521;6836;336328;-71
2023/10/20 01:31:06;;;;;;;3.03;2.83;;;16.00;68.90;;;;;;20732;6836;122869;-71
2023/10/20 01:33:32;;;;;;;3.22;3.00;;;15.90;69.80;;;;;;20723;6836;123021;-71
2023/10/20 01:35:57;;;;;;;3.50;3.20;;;15.90;69.60;;;;;;20518;6836;336883;-71
2023/10/20 01:38:23;;;;;;;3.40;3.20;;;16.00;69.40;;;;;;20532;6836;323770;-71
2023/10/20 01:40:49;;;;;;;5.97;4.50;;;16.30;67.80;;;;;;20523;6836;279924;-72
2023/10/20 01:43:14;;;;;;;5.85;5.45;;;16.60;66.70;;;;;;20521;6836;307213;-71
2023/10/20 01:45:40;;;;;;;10.43;5.90;;;16.70;66.00;;;;;;20518;6836;437886;-71
2023/10/20 01:48:06;;;;;;;5.63;5.20;;;16.90;65.70;;;;;;20745;6836;123651;-71
2023/10/20 01:50:31;;;;;;;4.93;4.63;;;16.70;66.00;;;;;;20744;6836;118025;-71
2023/10/20 01:52:57;;;;;;;5.90;5.40;;;16.40;67.10;;;;;;20520;6836;307598;-71
2023/10/20 01:55:22;;;;;;;4.30;4.00;;;16.40;67.50;;;;;;20717;6837;117483;-72
2023/10/20 01:57:50;;;;;;;3.90;3.60;;;16.00;68.80;;;;;;20731;6837;117289;-71
2023/10/20 02:00:16;;;;;;;4.80;4.27;;;16.00;68.80;;;;;;20520;6837;312087;-71
2023/10/20 02:02:41;;;;;;;3.60;3.40;;;16.10;68.80;;;;;;20723;6837;117147;-71
2023/10/20 02:05:12;;;;;;;3.30;3.05;;;16.10;68.80;;;;;;20740;6837;116906;-71
2023/10/20 02:07:36;;;;;;;3.60;3.30;;;15.90;69.50;;;;;;20725;6837;117206;-71
2023/10/20 02:10:01;;;;;;;3.22;3.03;;;15.70;70.30;;;;;;20742;6837;117201;-71
2023/10/20 02:12:27;;;;;;;3.90;3.60;;;15.50;71.00;;;;;;20523;6837;311674;-71
2023/10/20 02:14:53;;;;;;;3.87;3.58;;;15.70;70.40;;;;;;20528;6837;308037;-71
2023/10/20 02:17:19;;;;;;;3.47;3.17;;;16.00;68.90;;;;;;20738;6837;123021;-71
2023/10/20 02:19:45;;;;;;;3.63;3.43;;;16.10;68.20;;;;;;20501;6837;316338;-71
2023/10/20 02:22:10;;;;;;;3.23;3.03;;;16.10;68.20;;;;;;20729;6837;117162;-71
2023/10/20 02:24:36;;;;;;;4.40;4.10;;;16.00;68.30;;;;;;20739;6837;117577;-71
2023/10/20 02:27:01;;;;;;;3.50;3.20;;;15.80;69.20;;;;;;20735;6837;121066;-71
2023/10/20 02:29:27;;;;;;;3.70;3.50;;;15.70;70.20;;;;;;20718;6835;148055;-71
2023/10/20 02:31:52;;;;;;;3.90;3.60;;;15.60;71.00;;;;;;20733;6836;118160;-71
2023/10/20 02:34:18;;;;;;;3.83;3.53;;;15.40;71.70;;;;;;20737;6836;118737;-71
2023/10/20 02:36:44;;;;;;;3.63;3.33;;;15.30;72.70;;;;;;20733;6836;117997;-71
2023/10/20 02:39:10;;;;;;;4.30;4.00;;;15.30;72.70;;;;;;20726;6836;117042;-71
2023/10/20 02:41:35;;;;;;;3.60;3.40;;;15.20;73.00;;;;;;20716;6836;118025;-71
2023/10/20 02:44:01;;;;;;;5.18;4.87;;;15.20;73.30;;;;;;20528;6836;335988;-71
2023/10/20 02:46:27;;;;;;;4.85;4.55;;;15.40;72.80;;;;;;20523;6836;313128;-71
2023/10/20 02:48:53;;;;;;;4.70;4.30;;;16.10;69.60;;;;;;20527;6836;308075;-71
2023/10/20 02:51:19;;;;;;;4.13;3.73;;;16.00;69.50;;;;;;20730;6836;117120;-71
2023/10/20 02:53:44;;;;;;;3.73;3.50;;;16.00;69.40;;;;;;20701;6836;117381;-71
2023/10/20 02:56:10;;;;;;;3.80;3.60;;;15.80;70.40;;;;;;20740;6836;117092;-71
2023/10/20 02:58:36;;;;;;;4.50;4.10;;;15.50;72.50;;;;;;20727;6836;122940;-71
2023/10/20 03:01:02;;;;;;;5.90;4.90;;;15.50;72.50;;;;;;20526;6836;278170;-71
2023/10/20 03:03:27;;;;;;;7.20;6.70;;;15.70;72.70;;;;;;20498;6836;277753;-72
2023/10/20 03:05:53;;;;;;;4.90;4.60;;;16.00;71.10;;;;;;20737;6836;117704;-71
2023/10/20 03:08:18;;;;;;;6.05;5.55;;;15.90;70.50;;;;;;20526;6837;335925;-71
2023/10/20 03:10:45;;;;;;;4.93;4.53;;;15.90;70.30;;;;;;20740;6837;119223;-71
2023/10/20 03:13:10;;;;;;;5.23;4.93;;;15.90;70.20;;;;;;20738;6837;117127;-71
2023/10/20 03:15:36;;;;;;;6.32;5.72;;;15.80;71.40;;;;;;20503;6837;311705;-71
2023/10/20 03:18:02;;;;;;;5.68;5.05;;;15.80;71.40;;;;;;20737;6837;117215;-71
2023/10/20 03:20:28;;;;;;;4.77;4.40;;;15.80;71.30;;;;;;20701;6837;117140;-71
2023/10/20 03:22:54;;;;;;;4.80;4.40;;;15.50;73.00;;;;;;20725;6837;117189;-71
2023/10/20 03:25:20;;;;;;;5.87;4.63;;;15.40;72.90;;;;;;20728;6837;117060;-71
2023/10/20 03:27:45;;;;;;;4.97;4.57;;;15.30;73.80;;;;;;20703;6837;122118;-72
2023/10/20 03:30:11;;;;;;;4.83;4.43;;;15.20;74.50;;;;;;20733;6837;117633;-73
2023/10/20 03:32:37;;;;;;;5.90;5.40;;;15.10;75.10;;;;;;20496;6837;311821;-73
2023/10/20 03:35:03;;;;;;;6.57;4.67;;;15.40;74.50;;;;;;20697;6837;117084;-74
2023/10/20 03:37:29;;;;;;;4.00;3.73;;;15.40;74.50;;;;;;20658;6837;128986;-73
2023/10/20 03:39:54;;;;;;;4.45;4.03;;;15.30;74.70;;;;;;20688;6837;123046;-73
2023/10/20 03:42:21;;;;;;;4.43;4.12;;;15.20;75.40;;;;;;20689;6835;120914;-74
2023/10/20 03:44:47;;;;;;;4.93;4.53;;;15.10;76.40;;;;;;20678;6836;116988;-73
2023/10/20 03:47:13;;;;;;;5.03;4.30;;;15.00;76.60;;;;;;20683;6836;118170;-73
2023/10/20 03:49:37;;;;;;;5.30;4.20;;;14.90;77.10;;;;;;20676;6836;128587;-76
2023/10/20 03:52:03;;;;;;;5.72;5.10;;;14.80;77.50;;;;;;20738;6836;122652;-77
2023/10/20 03:54:31;;;;;;;5.30;4.90;;;14.80;78.10;;;;;;20729;6836;117118;-73
2023/10/20 03:56:58;;;;;;;5.00;4.67;;;14.70;78.60;;;;;;20728;6836;117681;-72
2023/10/20 03:59:22;;;;;;;5.03;4.62;;;14.70;79.00;;;;;;20716;6836;117103;-72
2023/10/20 04:01:47;;;;;;;4.90;4.60;;;14.60;79.30;;;;;;20749;6836;118345;-72
2023/10/20 04:04:13;;;;;;;6.05;5.55;;;14.60;79.90;;;;;;20745;6836;117164;-72
2023/10/20 04:06:39;;;;;;;7.20;6.70;;;14.60;80.20;;;;;;20527;6836;291979;-72
2023/10/20 04:09:08;;;;;;;6.67;6.07;;;14.80;79.20;;;;;;20743;6836;117361;-74
2023/10/20 04:11:30;;;;;;;7.13;6.63;;;14.90;78.00;;;;;;20499;6836;307718;-75
2023/10/20 04:13:56;;;;;;;8.02;7.43;;;15.20;77.20;;;;;;20515;6836;290693;-75
2023/10/20 04:16:23;;;;;;;7.12;6.50;;;15.50;74.30;;;;;;20751;6836;116148;-77
2023/10/20 04:18:48;;;;;;;7.30;5.97;;;15.50;74.30;;;;;;20712;6837;116925;-76
2023/10/20 04:21:13;;;;;;;6.87;6.47;;;15.30;75.00;;;;;;20506;6837;282639;-76
2023/10/20 04:23:39;;;;;;;7.70;6.23;;;15.50;74.50;;;;;;20655;6837;118725;-76
2023/10/20 04:26:04;;;;;;;5.73;5.33;;;15.50;74.00;;;;;;20720;6837;120301;-74
2023/10/20 05:07:55;;;;;;;11.60;10.60;;;16.00;67.90;;;;;;20544;6836;281260;-72
2023/10/20 05:10:19;;;;;;;12.43;11.43;;;16.00;68.00;;;;;;20522;6836;308336;-74
2023/10/20 05:12:45;;;;;;;10.73;9.77;;;16.10;67.60;;;;;;20749;6836;117511;-75
2023/10/20 05:15:10;;;;;;;10.40;9.48;;;15.90;67.90;;;;;;20724;6836;117972;-78
2023/10/20 05:17:36;;;;;;;11.02;10.02;;;15.60;69.10;;;;;;20736;6836;117758;-77
2023/10/20 05:20:05;;;;;;;14.17;13.07;;;15.30;70.50;;;;;;20537;6836;307790;-81
2023/10/20 05:22:27;;;;;;;11.30;10.50;;;15.40;70.70;;;;;;20756;6836;117941;-81
2023/10/20 05:24:53;;;;;;;13.73;12.52;;;15.30;70.80;;;;;;20538;6836;316990;-81
2023/10/20 05:27:18;;;;;;;14.68;13.38;;;15.40;70.40;;;;;;20564;6836;306882;-81
2023/10/20 05:29:44;;;;;;;14.25;13.05;;;15.60;69.40;;;;;;20522;6836;298146;-75
2023/10/20 05:32:10;;;;;;;12.82;11.70;;;15.90;68.30;;;;;;20733;6837;118066;-75
2023/10/20 05:34:35;;;;;;;12.67;11.50;;;15.70;68.10;;;;;;20739;6837;118166;-75
2023/10/20 05:37:01;;;;;;;13.13;11.98;;;15.50;69.20;;;;;;20738;6837;117471;-75
2023/10/20 05:39:26;;;;;;;11.67;10.53;;;15.20;70.30;;;;;;20717;6837;128451;-75
2023/10/20 05:41:52;;;;;;;53.22;48.22;;;15.00;71.10;;;;;;20523;6837;342089;-75
2023/10/20 05:44:22;;;;;;;13.10;12.00;;;15.10;71.10;;;;;;20730;6837;117775;-74
2023/10/20 05:46:43;;;;;;;12.45;11.52;;;15.10;70.90;;;;;;20730;6837;118471;-75
2023/10/20 05:49:09;;;;;;;15.17;13.87;;;14.90;71.60;;;;;;20538;6837;306915;-75
2023/10/20 05:51:34;;;;;;;15.20;13.93;;;15.00;71.20;;;;;;20527;6837;280736;-74
2023/10/20 05:54:00;;;;;;;12.98;11.65;;;15.30;69.90;;;;;;20749;6837;117669;-75
2023/10/20 05:56:26;;;;;;;12.77;11.20;;;15.30;69.80;;;;;;20741;6837;118500;-76
2023/10/20 05:58:56;;;;;;;12.18;11.07;;;15.00;70.60;;;;;;20760;6837;118501;-77
2023/10/20 06:01:21;;;;;;;13.30;12.20;;;14.80;71.60;;;;;;20535;6837;345397;-81
2023/10/20 06:03:47;;;;;;;12.80;11.47;;;15.00;71.00;;;;;;20782;6835;122453;-78
2023/10/20 06:06:13;;;;;;;11.60;10.57;;;15.00;70.80;;;;;;20768;6836;116549;-77
2023/10/20 06:08:39;;;;;;;12.90;11.83;;;14.90;71.40;;;;;;20553;6836;276767;-78
2023/10/20 06:11:04;;;;;;;11.40;10.40;;;15.00;70.50;;;;;;20762;6836;117758;-78
2023/10/20 06:13:30;;;;;;;13.13;12.17;;;15.00;70.30;;;;;;20551;6836;338051;-78
2023/10/20 06:15:55;;;;;;;13.37;12.40;;;15.20;69.20;;;;;;20570;6836;278033;-78
2023/10/20 06:18:21;;;;;;;13.10;12.10;;;15.70;66.50;;;;;;20543;6836;282282;-76
2023/10/20 06:20:47;;;;;;;11.13;10.13;;;15.70;66.50;;;;;;20744;6836;117470;-77
2023/10/20 06:23:13;;;;;;;10.00;9.20;;;15.60;66.70;;;;;;20745;6836;117214;-77
2023/10/20 06:25:39;;;;;;;10.13;9.32;;;15.10;68.80;;;;;;20721;6836;117206;-75
2023/10/20 06:28:06;;;;;;;9.50;8.70;;;15.10;68.80;;;;;;20735;6836;117508;-77
2023/10/20 06:30:30;;;;;;;11.85;11.02;;;14.90;69.90;;;;;;20516;6836;282470;-78
2023/10/20 06:32:56;;;;;;;12.50;11.60;;;15.10;69.10;;;;;;20446;6836;309747;-78
2023/10/20 06:35:26;;;;;;;10.77;9.87;;;15.40;67.70;;;;;;20690;6836;117607;-76
2023/10/20 06:37:55;;;;;;;12.90;11.87;;;15.40;67.30;;;;;;20149;6836;310753;-77
2023/10/20 06:40:15;;;;;;;10.10;9.10;;;15.50;66.30;;;;;;20703;6836;117541;-77
2023/10/20 06:42:38;;;;;;;12.13;11.23;;;15.50;66.50;;;;;;20492;6837;279256;-79
2023/10/20 06:45:10;;;;;;;10.50;9.60;;;15.50;65.70;;;;;;20710;6837;118938;-82
2023/10/20 06:47:36;;;;;;;11.93;10.93;;;15.50;66.20;;;;;;20480;6837;337379;-77
2023/10/20 06:50:02;;;;;;;11.45;10.65;;;15.60;66.10;;;;;;20492;6837;337735;-78
2023/10/20 06:52:27;;;;;;;10.20;9.50;;;15.80;64.50;;;;;;20703;6837;117825;-79
2023/10/20 06:54:56;;;;;;;10.47;9.33;;;15.70;64.80;;;;;;20723;6837;120022;-79
2023/10/20 06:57:20;;;;;;;12.35;11.25;;;15.50;65.70;;;;;;20517;6837;345035;-78
2023/10/20 06:59:45;;;;;;;10.07;9.30;;;15.60;65.40;;;;;;20699;6837;117812;-75
2023/10/20 07:02:11;;;;;;;11.60;10.70;;;15.50;65.60;;;;;;20516;6837;291494;-75
2023/10/20 07:04:38;;;;;;;11.17;10.43;;;15.60;65.30;;;;;;20524;6837;298224;-75
2023/10/20 07:07:05;;;;;;;11.60;10.70;;;15.90;64.50;;;;;;20518;6837;306495;-75
2023/10/20 07:09:28;;;;;;;14.95;13.20;;;16.30;62.90;;;;;;20494;6837;336914;-75
2023/10/20 07:11:54;;;;;;;10.23;9.40;;;16.30;62.70;;;;;;20735;6837;118763;-74
2023/10/20 07:14:19;;;;;;;10.50;9.80;;;16.20;63.20;;;;;;20522;6837;306884;-75
2023/10/20 07:16:45;;;;;;;9.10;8.37;;;16.20;62.80;;;;;;20719;6835;121729;-76
2023/10/20 07:19:11;;;;;;;19.17;11.97;;;15.90;64.20;;;;;;20716;6836;117022;-74
2023/10/20 07:21:37;;;;;;;14.07;11.77;;;15.90;64.20;;;;;;20477;6836;278537;-75
2023/10/20 07:24:03;;;;;;;12.10;11.10;;;15.90;63.80;;;;;;20502;6836;308557;-75
2023/10/20 07:26:28;;;;;;;8.87;8.27;;;16.20;63.20;;;;;;20711;6836;117441;-73
2023/10/20 07:28:54;;;;;;;8.60;7.97;;;16.10;63.40;;;;;;20711;6836;117087;-74
2023/10/20 07:31:21;;;;;;;10.43;9.63;;;16.00;63.50;;;;;;20503;6836;341932;-74
2023/10/20 07:33:45;;;;;;;9.20;8.40;;;16.00;63.50;;;;;;20693;6836;121791;-73
2023/10/20 07:36:14;;;;;;;10.55;9.75;;;16.00;64.00;;;;;;20499;6836;307091;-79
2023/10/20 07:38:42;;;;;;;11.13;9.93;;;16.10;63.60;;;;;;20524;6836;311858;-79
2023/10/20 07:41:09;;;;;;;8.17;7.50;;;16.40;62.20;;;;;;20725;6836;118210;-73
2023/10/20 07:43:33;;;;;;;9.30;8.50;;;16.40;62.70;;;;;;20489;6836;308376;-74
2023/10/20 07:45:59;;;;;;;8.88;8.18;;;16.50;61.80;;;;;;20734;6836;117667;-74
2023/10/20 07:48:28;;;;;;;8.80;8.20;;;16.60;61.10;;;;;;20529;6836;310140;-73
2023/10/20 07:50:55;;;;;;;7.40;6.90;;;16.50;61.00;;;;;;20740;6836;119229;-73
2023/10/20 07:53:19;;;;;;;7.30;6.75;;;16.50;61.70;;;;;;20732;6837;119174;-74
2023/10/20 07:55:45;;;;;;;9.15;8.40;;;16.50;62.50;;;;;;20521;6837;278176;-73
2023/10/20 07:58:11;;;;;;;8.43;7.83;;;16.50;62.50;;;;;;20739;6837;119979;-74
2023/10/20 08:00:39;;;;;;;8.13;7.40;;;16.40;64.30;;;;;;20735;6837;117924;-77
2023/10/20 08:03:05;;;;;;;8.47;7.97;;;16.30;64.90;;;;;;20717;6837;117360;-75
2023/10/20 08:05:31;;;;;;;11.80;10.97;;;16.30;64.90;;;;;;20699;6837;118288;-76
2023/10/20 08:08:01;;;;;;;11.53;10.63;;;16.20;65.70;;;;;;20505;6837;306935;-75
2023/10/20 08:10:26;;;;;;;10.20;9.50;;;16.70;64.40;;;;;;20492;6837;308221;-75
2023/10/20 08:12:52;;;;;;;8.80;8.10;;;16.70;64.40;;;;;;20725;6837;120073;-74
2023/10/20 08:15:19;;;;;;;8.40;7.80;;;16.60;65.30;;;;;;20734;6837;117173;-75
2023/10/20 08:17:46;;;;;;;10.37;9.50;;;16.60;65.30;;;;;;20502;6837;304982;-75
2023/10/20 08:20:11;;;;;;;8.40;7.80;;;16.70;64.80;;;;;;20725;6837;117780;-76
2023/10/20 08:22:37;;;;;;;10.07;9.37;;;16.70;65.10;;;;;;20514;6837;306891;-78
2023/10/20 08:25:03;;;;;;;38.00;30.27;;;16.90;64.70;;;;;;20515;6837;307729;-77
2023/10/20 08:27:29;;;;;;;52.77;38.27;;;17.10;63.40;;;;;;20504;6835;309834;-75
2023/10/20 08:29:57;;;;;;;24.95;18.95;;;17.30;63.00;;;;;;20744;6836;118270;-76
2023/10/20 08:32:23;;;;;;;13.53;12.23;;;17.30;63.00;;;;;;20732;6836;119117;-75
2023/10/20 08:34:49;;;;;;;10.23;9.50;;;16.90;64.80;;;;;;20739;6836;117847;-75
2023/10/20 08:37:16;;;;;;;9.80;9.10;;;16.90;64.80;;;;;;20739;6836;116481;-77
2023/10/20 09:04:28;;;;;;;8.63;7.80;;;18.30;60.50;;;;;;21082;6646;205851;31
2023/10/20 09:06:54;;;;;;;8.50;7.70;;;18.20;61.40;;;;;;21097;6702;67190;31
2023/10/20 09:09:20;;;;;;;9.93;9.20;;;17.80;62.10;;;;;;20879;6702;311466;31
2023/10/20 09:11:45;;;;;;;15.20;14.00;;;17.80;61.70;;;;;;20884;6702;331178;31
2023/10/20 09:14:12;;;;;;;17.62;15.85;;;17.90;61.60;;;;;;21058;6702;68108;31
2023/10/20 09:16:37;;;;;;;13.55;12.25;;;17.70;62.10;;;;;;21105;6702;67064;31
2023/10/20 09:19:02;;;;;;;10.98;9.98;;;17.40;63.00;;;;;;21101;6702;67440;31
2023/10/20 09:21:28;;;;;;;10.60;9.70;;;17.10;64.00;;;;;;21093;6702;67157;31
2023/10/20 09:24:03;;;;;;;10.25;9.45;;;16.90;65.10;;;;;;21101;6702;75862;31
2023/10/20 09:26:34;;;;;;;8.73;8.03;;;16.70;66.00;;;;;;21090;6702;69792;31
2023/10/20 09:29:00;;;;;;;10.57;9.85;;;16.60;67.20;;;;;;20875;6702;274235;31
2023/10/20 09:31:26;;;;;;;9.43;8.73;;;16.90;67.60;;;;;;21098;6702;66886;31
2023/10/20 09:33:52;;;;;;;9.97;9.07;;;17.00;67.60;;;;;;20874;6702;275073;31
2023/10/20 09:36:17;;;;;;;10.27;9.53;;;17.30;67.00;;;;;;20887;6702;276055;31
2023/10/20 09:38:49;;;;;;;9.50;8.85;;;17.60;66.00;;;;;;20887;6702;332446;31
2023/10/20 09:41:15;;;;;;;8.20;7.60;;;18.00;64.80;;;;;;21082;6702;66949;31
2023/10/20 09:43:52;;;;;;;9.50;8.80;;;18.00;64.80;;;;;;20872;6702;339235;31
2023/10/20 09:46:29;;;;;;;9.50;8.83;;;18.10;64.50;;;;;;20856;6702;274815;31
2023/10/20 09:48:55;;;;;;;8.95;8.27;;;18.40;64.10;;;;;;20854;6702;303777;31
2023/10/20 09:51:22;;;;;;;8.60;8.10;;;18.70;62.70;;;;;;20869;6702;302723;31
2023/10/20 09:53:47;;;;;;;8.53;7.97;;;18.90;61.90;;;;;;20867;6702;275068;31
2023/10/20 09:56:13;;;;;;;8.67;8.10;;;19.10;61.10;;;;;;20873;6702;298310;31
2023/10/20 09:58:39;;;;;;;8.63;8.13;;;19.30;60.50;;;;;;20870;6702;304801;31
2023/10/20 10:01:04;;;;;;;8.43;7.93;;;19.40;60.00;;;;;;20865;6702;319267;31
2023/10/20 10:03:30;;;;;;;8.43;7.70;;;19.50;59.60;;;;;;20886;6702;276071;31
2023/10/20 10:05:56;;;;;;;7.28;6.78;;;19.50;59.50;;;;;;21112;6702;67353;31
2023/10/20 10:08:22;;;;;;;7.23;6.63;;;19.30;60.40;;;;;;21103;6688;67175;31
2023/10/20 10:10:49;;;;;;;6.97;6.57;;;19.00;61.50;;;;;;21150;6688;66963;31
2023/10/20 10:13:15;;;;;;;9.03;8.03;;;18.80;62.70;;;;;;21134;6688;71217;31
2023/10/20 10:15:40;;;;;;;8.17;7.67;;;18.60;63.80;;;;;;21138;6687;66625;31
2023/10/20 10:18:10;;;;;;;7.37;6.80;;;18.50;64.70;;;;;;20929;6688;310473;31
2023/10/20 10:20:35;;;;;;;6.97;6.43;;;18.70;63.70;;;;;;20743;6688;67734;31
2023/10/20 10:23:00;;;;;;;7.60;7.00;;;18.80;63.90;;;;;;21125;6688;67082;31
2023/10/20 10:25:39;;;;;;;6.07;5.67;;;18.70;64.40;;;;;;21138;6688;67281;31
2023/10/20 10:28:11;;;;;;;7.00;6.53;;;18.70;65.20;;;;;;20925;6688;275118;31
2023/10/20 10:30:40;;;;;;;6.23;5.73;;;18.90;63.30;;;;;;20937;6688;303715;31
2023/10/20 10:33:12;;;;;;;5.60;5.20;;;19.20;62.00;;;;;;21146;6688;67022;31
2023/10/20 10:35:40;;;;;;;5.70;5.30;;;19.30;62.40;;;;;;20931;6688;331582;31
2023/10/20 10:38:03;;;;;;;6.00;5.60;;;19.30;61.00;;;;;;20831;6688;274362;31
2023/10/20 10:40:29;;;;;;;5.28;4.75;;;19.40;60.70;;;;;;20930;6688;275012;31
2023/10/20 10:42:55;;;;;;;5.00;4.70;;;19.60;60.40;;;;;;20936;6688;304514;31
2023/10/20 10:45:37;;;;;;;3.77;3.47;;;19.70;59.50;;;;;;21145;6688;73442;31
2023/10/20 10:48:02;;;;;;;4.33;4.03;;;19.50;60.00;;;;;;20921;6688;311524;31
2023/10/20 10:50:27;;;;;;;4.20;3.90;;;19.50;59.70;;;;;;20852;6688;297931;31
2023/10/20 10:52:53;;;;;;;3.43;3.23;;;19.60;59.40;;;;;;21156;6688;66875;31
2023/10/20 10:55:19;;;;;;;3.40;3.10;;;19.40;60.00;;;;;;21141;6688;67294;31
2023/10/20 10:57:45;;;;;;;3.20;3.00;;;19.10;60.80;;;;;;21148;6688;67050;31
2023/10/20 11:00:15;;;;;;;3.80;3.50;;;18.80;61.60;;;;;;20881;6688;274301;31
2023/10/20 11:02:37;;;;;;;3.60;3.30;;;18.90;61.20;;;;;;20855;6688;304127;31
2023/10/20 11:05:03;;;;;;;3.43;3.23;;;19.00;60.60;;;;;;20914;6688;303361;31
2023/10/20 11:07:29;;;;;;;3.40;3.20;;;19.20;60.30;;;;;;20922;6688;317884;31
2023/10/20 11:09:55;;;;;;;2.57;2.47;;;19.40;60.20;;;;;;21147;6688;67430;31
2023/10/20 11:12:20;;;;;;;3.37;3.08;;;19.30;60.70;;;;;;20937;6688;332834;31
2023/10/20 11:14:47;;;;;;;2.80;2.70;;;19.30;60.70;;;;;;21136;6687;67048;31
2023/10/20 11:17:13;;;;;;;3.23;3.07;;;19.20;60.80;;;;;;21154;6687;67078;31
2023/10/20 11:19:38;;;;;;;3.17;2.97;;;19.00;61.70;;;;;;20912;6687;331348;31
2023/10/20 11:22:03;;;;;;;3.63;2.20;;;19.10;61.50;;;;;;21144;6687;69753;31
2023/10/20 11:24:29;;;;;;;2.80;2.70;;;19.10;61.90;;;;;;21104;6687;66226;31
2023/10/20 11:26:57;;;;;;;3.10;2.80;;;19.00;62.50;;;;;;20930;6685;274487;31
2023/10/20 11:29:22;;;;;;;2.70;2.57;;;19.10;61.60;;;;;;21113;6687;67938;31
2023/10/20 11:31:47;;;;;;;2.73;2.63;;;19.10;62.00;;;;;;20952;6687;274684;31
2023/10/20 11:34:14;;;;;;;3.00;2.90;;;19.20;61.40;;;;;;21148;6687;66579;31
2023/10/20 11:36:40;;;;;;;3.10;2.90;;;19.30;61.70;;;;;;20936;6687;280727;31
2023/10/20 11:39:08;;;;;;;3.25;2.95;;;19.30;60.70;;;;;;20928;6687;274148;31
2023/10/20 11:41:33;;;;;;;3.00;2.80;;;19.60;60.60;;;;;;20938;6687;279316;31
2023/10/20 11:43:59;;;;;;;2.90;2.70;;;19.80;59.90;;;;;;20944;6687;303325;31
2023/10/20 11:46:25;;;;;;;3.37;2.50;;;20.00;59.20;;;;;;20909;6687;307974;31
2023/10/20 11:48:50;;;;;;;2.90;2.40;;;20.10;58.90;;;;;;20941;6687;281530;31
2023/10/20 11:51:16;;;;;;;2.10;2.00;;;20.20;58.60;;;;;;21139;6687;67320;31
2023/10/20 11:53:42;;;;;;;1.93;1.83;;;20.10;59.30;;;;;;21144;6687;66987;31
2023/10/20 11:56:07;;;;;;;2.13;2.03;;;19.80;60.00;;;;;;21150;6687;67142;31
2023/10/20 11:58:33;;;;;;;1.42;1.40;;;19.50;60.80;;;;;;20924;6687;338434;31
2023/10/20 12:00:59;;;;;;;1.60;1.50;;;19.50;59.90;;;;;;21146;6687;70376;31
2023/10/20 12:03:25;;;;;;;1.30;1.20;;;19.50;60.20;;;;;;21146;6687;68433;31
2023/10/20 12:05:52;;;;;;;1.27;1.27;;;19.30;60.90;;;;;;20928;6687;303723;31
2023/10/20 12:08:17;;;;;;;1.23;1.23;;;19.40;59.80;;;;;;20933;6687;274269;31
2023/10/20 12:10:43;;;;;;;1.47;1.00;;;19.70;58.80;;;;;;20935;6687;313576;31
2023/10/20 12:13:09;;;;;;;0.98;0.85;;;19.90;57.70;;;;;;20922;6687;322865;31
2023/10/20 12:15:36;;;;;;;1.50;0.73;;;20.10;57.50;;;;;;21133;6687;68672;31
2023/10/20 12:18:00;;;;;;;2.20;0.80;;;20.00;58.20;;;;;;21133;6687;69830;31
2023/10/20 12:20:27;;;;;;;0.60;0.60;;;19.70;59.00;;;;;;21148;6687;67075;31
2023/10/20 12:22:58;;;;;;;0.53;0.53;;;19.60;60.00;;;;;;21147;6687;71877;31
2023/10/20 12:25:18;;;;;;;2.27;0.63;;;19.40;60.40;;;;;;21123;6687;67067;31
2023/10/20 12:27:43;;;;;;;0.23;0.23;;;19.30;60.90;;;;;;21147;6687;67394;31
2023/10/20 12:30:10;;;;;;;1.40;0.40;;;19.30;61.30;;;;;;20931;6687;332837;31
2023/10/20 12:32:35;;;;;;;0.20;0.20;;;19.60;58.50;;;;;;21136;6687;67141;31
2023/10/20 12:35:00;;;;;;;0.88;0.40;;;19.70;58.30;;;;;;20939;6687;332479;31
2023/10/20 12:37:26;;;;;;;0.20;0.20;;;19.90;56.60;;;;;;20937;6686;274002;31
2023/10/20 12:39:52;;;;;;;0.30;0.20;;;20.20;54.90;;;;;;20953;6687;274522;31
2023/10/20 12:42:17;;;;;;;0.30;0.20;;;20.50;54.60;;;;;;20951;6687;281572;31
2023/10/20 12:44:43;;;;;;;0.10;0.10;;;20.70;53.80;;;;;;21168;6687;66969;31
2023/10/20 12:47:08;;;;;;;0.43;0.30;;;20.70;54.70;;;;;;21122;6687;66356;31
2023/10/20 12:49:34;;;;;;;0.50;0.20;;;20.40;55.20;;;;;;20935;6687;303341;31
2023/10/20 12:52:01;;;;;;;0.97;0.10;;;20.40;53.80;;;;;;21153;6687;73404;31
2023/10/20 12:54:26;;;;;;;0.90;0.20;;;20.40;54.80;;;;;;20939;6687;274486;31
2023/10/20 12:56:51;;;;;;;0.50;0.20;;;20.40;52.90;;;;;;20944;6687;286655;31
2023/10/20 12:59:18;;;;;;;0.20;0.20;;;20.60;53.20;;;;;;21149;6687;67071;31
2023/10/20 13:01:43;;;;;;;0.80;0.20;;;20.60;54.30;;;;;;20934;6687;332857;31
2023/10/20 13:04:08;;;;;;;0.28;0.20;;;20.70;52.50;;;;;;20930;6687;274975;31
2023/10/20 13:06:34;;;;;;;0.10;0.10;;;20.90;50.60;;;;;;21161;6687;65821;31
2023/10/20 13:08:59;;;;;;;0.20;0.20;;;20.70;51.80;;;;;;21154;6687;66655;31
2023/10/20 13:11:25;;;;;;;0.50;0.20;;;20.40;52.20;;;;;;20934;6687;303817;31
2023/10/20 13:13:50;;;;;;;1.60;0.23;;;20.40;50.10;;;;;;21150;6687;65987;31
2023/10/20 13:16:17;;;;;;;0.10;0.10;;;20.20;51.40;;;;;;20933;6687;286644;31
2023/10/20 13:18:42;;;;;;;0.10;0.10;;;20.20;50.50;;;;;;21145;6687;66165;31
2023/10/20 13:21:11;;;;;;;0.40;0.20;;;20.10;51.90;;;;;;21131;6687;66696;31
2023/10/20 13:23:37;;;;;;;0.20;0.20;;;19.90;53.10;;;;;;20900;6687;310785;31
2023/10/20 13:26:05;;;;;;;0.13;0.13;;;19.90;51.90;;;;;;21145;6687;66980;31
2023/10/20 13:28:31;;;;;;;0.60;0.40;;;19.90;52.90;;;;;;21147;6687;67489;31
2023/10/20 13:31:03;;;;;;;0.80;0.20;;;19.70;53.40;;;;;;20932;6687;273938;31
2023/10/20 13:33:26;;;;;;;0.70;0.30;;;19.70;50.90;;;;;;20919;6687;302940;31
2023/10/20 13:35:51;;;;;;;0.20;0.20;;;20.00;49.70;;;;;;21129;6687;67787;31